Terminal Aerodrome Forecast
Issued by NWS

Home | Current Version | Previous Version | Text Only | Print | Product List | Glossary On
Versions: 1 2 3 4 5 6 7 8 9 10 11 12 13 14 15 16 17 18 19 20 21 22 23 24 25 26 27
000
FTUS43 KDTX 271218 AAA
TAFDET
TAF AMD
KDET 271218Z 2712/2812 23006KT 4SM BR SCT006 BKN015 OVC025
     FM271400 24007KT P6SM SCT008 OVC016
     FM271800 25009KT P6SM OVC018
     FM272300 26005KT P6SM BKN025 OVC080
     FM280200 01005KT P6SM BKN028 OVC060
     FM280800 03008KT 4SM BR BKN010 OVC080=

USA.gov is the U.S. government's official web portal to all federal, state and local government web resources and services.